createdAt,value
2017-12-05T00:00:26.725Z,0
2017-12-05T00:01:07.293Z,0
2017-12-05T00:01:47.853Z,0
2017-12-05T00:02:28.423Z,0
2017-12-05T00:03:08.995Z,0
2017-12-05T00:03:49.573Z,0
2017-12-05T00:04:30.126Z,0
2017-12-05T00:05:10.686Z,0
2017-12-05T00:05:51.263Z,0
2017-12-05T00:06:31.827Z,0
2017-12-05T00:07:12.389Z,0
2017-12-05T00:07:52.981Z,0
2017-12-05T00:08:33.549Z,0
2017-12-05T00:09:14.137Z,0
2017-12-05T00:09:54.701Z,0
2017-12-05T00:10:35.274Z,0
2017-12-05T00:11:15.890Z,0
2017-12-05T00:11:56.456Z,0
2017-12-05T00:12:37.010Z,0
2017-12-05T00:13:17.586Z,0
2017-12-05T00:13:58.153Z,0
2017-12-05T00:14:38.763Z,0
2017-12-05T00:15:19.339Z,0
2017-12-05T00:15:59.910Z,0
2017-12-05T00:16:40.482Z,0
2017-12-05T00:17:21.067Z,0
2017-12-05T00:18:01.641Z,0
2017-12-05T00:18:42.194Z,0
2017-12-05T00:19:22.759Z,0
2017-12-05T00:20:03.330Z,0
2017-12-05T00:20:43.901Z,0
2017-12-05T00:21:24.470Z,0
2017-12-05T00:22:05.044Z,0
2017-12-05T00:22:45.611Z,0
2017-12-05T00:23:26.187Z,0
2017-12-05T00:24:06.761Z,0
2017-12-05T00:24:47.349Z,0
2017-12-05T00:25:27.904Z,0
2017-12-05T00:26:08.468Z,0
2017-12-05T00:26:49.039Z,0
2017-12-05T00:27:29.633Z,0
2017-12-05T00:28:10.203Z,0
2017-12-05T00:28:50.782Z,0
2017-12-05T00:29:31.345Z,0
2017-12-05T00:30:11.930Z,0
2017-12-05T00:30:52.486Z,0
2017-12-05T00:31:33.054Z,0
2017-12-05T00:32:13.612Z,0
2017-12-05T00:32:54.184Z,0
2017-12-05T00:33:34.740Z,0
2017-12-05T00:34:15.304Z,0
2017-12-05T00:34:55.880Z,0
2017-12-05T00:35:36.441Z,0
2017-12-05T00:36:16.999Z,0
2017-12-05T00:36:57.558Z,0
2017-12-05T00:37:38.129Z,0
2017-12-05T00:38:18.686Z,0
2017-12-05T00:38:59.245Z,0
2017-12-05T00:39:39.817Z,0
2017-12-05T00:40:20.382Z,0
2017-12-05T00:41:00.945Z,0
2017-12-05T00:41:41.502Z,0
2017-12-05T00:42:22.075Z,0
2017-12-05T00:43:02.670Z,0
2017-12-05T00:43:43.249Z,0
2017-12-05T00:44:23.813Z,0
2017-12-05T00:45:04.386Z,0
2017-12-05T00:45:44.944Z,0
2017-12-05T00:46:25.514Z,0
2017-12-05T00:47:06.073Z,0
2017-12-05T00:47:46.644Z,0
2017-12-05T00:48:27.208Z,0
2017-12-05T00:49:07.775Z,0
2017-12-05T00:49:48.331Z,0
2017-12-05T00:50:28.902Z,0
2017-12-05T00:51:09.469Z,0
2017-12-05T00:51:50.036Z,0
2017-12-05T00:52:30.594Z,0
2017-12-05T00:53:11.163Z,0
2017-12-05T00:53:51.749Z,0
2017-12-05T00:54:32.333Z,0
2017-12-05T00:55:12.921Z,0
2017-12-05T00:55:53.515Z,0
2017-12-05T00:56:34.079Z,0
2017-12-05T00:57:14.659Z,0
2017-12-05T00:57:55.238Z,0
2017-12-05T00:58:35.832Z,0
2017-12-05T00:59:16.431Z,0
2017-12-05T00:59:56.998Z,0
2017-12-05T01:00:37.563Z,0
2017-12-05T01:01:18.147Z,0
2017-12-05T01:01:58.755Z,0
2017-12-05T01:02:39.321Z,0
2017-12-05T01:03:19.889Z,0
2017-12-05T01:04:00.487Z,0
2017-12-05T01:04:41.061Z,0
2017-12-05T01:05:21.609Z,0
2017-12-05T01:06:02.166Z,0
2017-12-05T01:06:42.734Z,0
2017-12-05T01:07:23.286Z,0
2017-12-05T01:08:03.859Z,0
2017-12-05T01:08:44.507Z,0
2017-12-05T01:09:25.070Z,0
2017-12-05T01:10:05.626Z,0
2017-12-05T01:10:46.205Z,0
2017-12-05T01:11:26.773Z,0
2017-12-05T01:12:07.368Z,0
2017-12-05T01:12:47.930Z,0
2017-12-05T01:13:28.483Z,0
2017-12-05T01:14:09.058Z,0
2017-12-05T01:14:49.635Z,0
2017-12-05T01:15:30.205Z,0
2017-12-05T01:16:10.763Z,0
2017-12-05T01:16:51.358Z,0
2017-12-05T01:17:31.925Z,0
2017-12-05T01:18:12.537Z,0
2017-12-05T01:18:53.153Z,0
2017-12-05T01:19:33.726Z,0
2017-12-05T01:20:20.831Z,0
2017-12-05T01:21:01.407Z,0
2017-12-05T01:21:41.970Z,0
2017-12-05T01:22:22.544Z,0
2017-12-05T01:23:03.110Z,0
2017-12-05T01:23:43.687Z,0
2017-12-05T01:24:24.237Z,0
2017-12-05T01:25:04.826Z,0
2017-12-05T01:25:45.387Z,0
2017-12-05T01:26:25.960Z,0
2017-12-05T01:27:06.508Z,0
2017-12-05T01:27:47.074Z,0
2017-12-05T01:28:27.643Z,0
2017-12-05T01:29:08.202Z,0
2017-12-05T01:29:49.332Z,0
2017-12-05T01:30:29.889Z,0
2017-12-05T01:31:10.446Z,0
2017-12-05T01:31:51.012Z,0
2017-12-05T01:32:31.574Z,0
2017-12-05T01:33:12.145Z,0
2017-12-05T01:33:52.738Z,0
2017-12-05T01:34:33.313Z,0
2017-12-05T01:35:13.894Z,0
2017-12-05T01:35:54.476Z,0
2017-12-05T01:36:35.041Z,0
2017-12-05T01:37:15.641Z,0
2017-12-05T01:37:56.177Z,0
2017-12-05T01:38:36.739Z,0
2017-12-05T01:39:17.307Z,0
2017-12-05T01:39:57.881Z,0
2017-12-05T01:40:38.456Z,0
2017-12-05T01:41:19.037Z,0
2017-12-05T01:41:59.620Z,0
2017-12-05T01:42:40.181Z,0
2017-12-05T01:43:20.747Z,0
2017-12-05T01:44:01.302Z,0
2017-12-05T01:44:41.953Z,0
2017-12-05T01:45:22.479Z,0
2017-12-05T01:46:03.042Z,0
2017-12-05T01:46:43.616Z,0
2017-12-05T01:47:24.253Z,0
2017-12-05T01:48:04.790Z,0
2017-12-05T01:48:45.365Z,0
2017-12-05T01:49:25.954Z,0
2017-12-05T01:50:06.522Z,0
2017-12-05T01:50:47.091Z,0
2017-12-05T01:51:27.667Z,0
2017-12-05T01:52:08.257Z,0
2017-12-05T01:52:48.824Z,0
2017-12-05T01:53:29.399Z,0
2017-12-05T01:54:09.970Z,0
2017-12-05T01:54:50.550Z,0
2017-12-05T01:55:31.130Z,0
2017-12-05T01:56:11.722Z,0
2017-12-05T01:56:52.319Z,0
2017-12-05T01:57:32.882Z,0
2017-12-05T01:58:13.485Z,0
2017-12-05T01:58:54.052Z,0
2017-12-05T01:59:34.660Z,0
2017-12-05T02:00:15.222Z,0
2017-12-05T02:00:55.798Z,0
2017-12-05T02:01:36.364Z,0
2017-12-05T02:02:16.922Z,0
2017-12-05T02:02:57.510Z,0
2017-12-05T02:03:38.069Z,0
2017-12-05T02:04:18.635Z,0
2017-12-05T02:04:59.203Z,0
2017-12-05T02:05:39.765Z,0
2017-12-05T02:06:20.330Z,0
2017-12-05T02:07:00.896Z,0
2017-12-05T02:07:41.466Z,0
2017-12-05T02:08:22.053Z,0
2017-12-05T02:09:02.627Z,0
2017-12-05T02:09:43.200Z,0
2017-12-05T02:10:23.786Z,0
2017-12-05T02:11:04.348Z,0
2017-12-05T02:11:44.903Z,0
2017-12-05T02:12:25.482Z,0
2017-12-05T02:13:06.042Z,0
2017-12-05T02:13:46.607Z,0
2017-12-05T02:14:27.178Z,0
2017-12-05T02:15:07.748Z,0
2017-12-05T02:15:48.314Z,0
2017-12-05T02:16:28.895Z,0
2017-12-05T02:17:09.465Z,0
2017-12-05T02:17:50.039Z,0
2017-12-05T02:18:30.600Z,0
2017-12-05T02:19:11.194Z,0
2017-12-05T02:19:51.795Z,0
2017-12-05T02:20:32.394Z,0
2017-12-05T02:21:12.969Z,0
2017-12-05T02:21:53.537Z,0
2017-12-05T02:22:34.099Z,0
2017-12-05T02:23:14.659Z,0
2017-12-05T02:23:55.233Z,0
2017-12-05T02:24:35.812Z,0
2017-12-05T02:25:16.366Z,0
2017-12-05T02:25:56.970Z,0
2017-12-05T02:26:37.526Z,0
2017-12-05T02:27:18.087Z,0
2017-12-05T02:27:58.649Z,0
2017-12-05T02:28:39.207Z,0
2017-12-05T02:29:19.779Z,0
2017-12-05T02:30:00.341Z,0
2017-12-05T02:30:40.911Z,0
2017-12-05T02:31:21.483Z,0
2017-12-05T02:32:02.043Z,0
2017-12-05T02:32:42.627Z,0
2017-12-05T02:33:23.213Z,0
2017-12-05T02:34:03.777Z,0
2017-12-05T02:34:44.348Z,0
2017-12-05T02:35:24.918Z,0
2017-12-05T02:36:05.474Z,0
2017-12-05T02:36:46.040Z,0
2017-12-05T02:37:26.622Z,0
2017-12-05T02:38:07.199Z,0
2017-12-05T02:38:47.785Z,0
2017-12-05T02:39:28.350Z,0
2017-12-05T02:40:08.934Z,0
2017-12-05T02:40:49.495Z,0
2017-12-05T02:41:30.092Z,0
2017-12-05T02:42:10.663Z,0
2017-12-05T02:42:51.229Z,0
2017-12-05T02:43:31.795Z,0
2017-12-05T02:44:12.362Z,0
2017-12-05T02:44:52.936Z,0
2017-12-05T02:45:33.507Z,0
2017-12-05T02:46:14.062Z,0
2017-12-05T02:46:54.639Z,0
2017-12-05T02:47:35.193Z,0
2017-12-05T02:48:15.752Z,0
2017-12-05T02:48:56.329Z,0
2017-12-05T02:49:36.897Z,0
2017-12-05T02:50:17.460Z,0
2017-12-05T02:50:58.027Z,0
2017-12-05T02:51:38.635Z,0
2017-12-05T02:52:19.198Z,0
2017-12-05T02:52:59.751Z,0
2017-12-05T02:53:40.315Z,0
2017-12-05T02:54:20.876Z,0
2017-12-05T02:55:01.445Z,0
2017-12-05T02:55:42.005Z,0
2017-12-05T02:56:22.562Z,0
2017-12-05T02:57:03.135Z,0
2017-12-05T02:57:43.709Z,0
2017-12-05T02:58:25.552Z,0
2017-12-05T02:59:07.469Z,0
2017-12-05T02:59:48.663Z,0
2017-12-05T03:00:29.376Z,0
2017-12-05T03:01:09.949Z,0
2017-12-05T03:01:50.518Z,0
2017-12-05T03:02:31.082Z,0
2017-12-05T03:03:11.669Z,0
2017-12-05T03:03:52.247Z,0
2017-12-05T03:04:32.822Z,0
2017-12-05T03:05:13.384Z,0
2017-12-05T03:05:53.956Z,0
2017-12-05T03:06:34.648Z,0
2017-12-05T03:07:15.223Z,0
2017-12-05T03:07:55.803Z,0
2017-12-05T03:08:36.369Z,0
2017-12-05T03:09:16.926Z,0
2017-12-05T03:09:57.493Z,0
2017-12-05T03:10:38.055Z,0
2017-12-05T03:11:18.614Z,0
2017-12-05T03:11:59.174Z,0
2017-12-05T03:12:39.753Z,0
2017-12-05T03:13:20.344Z,0
2017-12-05T03:14:00.914Z,0
2017-12-05T03:14:41.481Z,0
2017-12-05T03:15:22.048Z,0
2017-12-05T03:16:02.624Z,0
2017-12-05T03:16:43.194Z,0
2017-12-05T03:17:23.798Z,0
2017-12-05T03:18:04.371Z,0
2017-12-05T03:18:44.929Z,0
2017-12-05T03:19:25.488Z,0
2017-12-05T03:20:06.067Z,0
2017-12-05T03:20:46.643Z,0
2017-12-05T03:21:27.231Z,0
2017-12-05T03:22:07.849Z,0
2017-12-05T03:22:48.433Z,0
2017-12-05T03:23:28.997Z,0
2017-12-05T03:24:09.545Z,0
2017-12-05T03:24:50.114Z,0
2017-12-05T03:25:30.700Z,0
2017-12-05T03:26:11.327Z,0
2017-12-05T03:26:51.928Z,0
2017-12-05T03:27:32.507Z,0
2017-12-05T03:28:13.078Z,0
2017-12-05T03:28:53.716Z,0
2017-12-05T03:29:34.229Z,0
2017-12-05T03:30:14.791Z,0
2017-12-05T03:30:55.362Z,0
2017-12-05T03:31:35.941Z,0
2017-12-05T03:32:16.525Z,0
2017-12-05T03:32:57.105Z,0
2017-12-05T03:33:37.680Z,0
2017-12-05T03:34:18.255Z,0
2017-12-05T03:34:58.848Z,0
2017-12-05T03:35:39.416Z,0
2017-12-05T03:36:20.002Z,0
2017-12-05T03:37:00.567Z,0
2017-12-05T03:37:41.125Z,0
2017-12-05T03:38:21.691Z,0
2017-12-05T03:39:02.262Z,0
2017-12-05T03:39:42.832Z,0
2017-12-05T03:40:23.452Z,0
2017-12-05T03:41:04.026Z,0
2017-12-05T03:41:44.591Z,0
2017-12-05T03:42:25.156Z,0
2017-12-05T03:43:05.721Z,0
2017-12-05T03:43:46.303Z,0
2017-12-05T03:44:26.874Z,0
2017-12-05T03:45:07.438Z,0
2017-12-05T03:45:48.034Z,0
2017-12-05T03:46:28.624Z,0
2017-12-05T03:47:09.193Z,0
2017-12-05T03:47:49.765Z,0
2017-12-05T03:48:30.320Z,0
2017-12-05T03:49:10.872Z,0
2017-12-05T03:49:51.429Z,0
2017-12-05T03:50:32.036Z,0
2017-12-05T03:51:12.594Z,0
2017-12-05T03:51:53.173Z,0
2017-12-05T03:52:33.733Z,0
2017-12-05T03:53:14.445Z,0
2017-12-05T03:53:55.254Z,0
2017-12-05T03:54:35.825Z,0
2017-12-05T03:55:16.393Z,0
2017-12-05T03:55:56.951Z,0
2017-12-05T03:56:37.519Z,0
2017-12-05T03:57:18.098Z,0
2017-12-05T03:57:58.669Z,0
2017-12-05T03:58:39.228Z,0
2017-12-05T03:59:19.796Z,0
2017-12-05T04:00:00.363Z,0
2017-12-05T04:00:40.930Z,0
2017-12-05T04:01:21.505Z,0
2017-12-05T04:02:02.070Z,0
2017-12-05T04:02:42.662Z,0
2017-12-05T04:03:23.253Z,0
2017-12-05T04:04:03.805Z,0
2017-12-05T04:04:44.388Z,0
2017-12-05T04:05:24.961Z,0
2017-12-05T04:06:05.560Z,0
2017-12-05T04:06:46.124Z,0
2017-12-05T04:07:26.674Z,0
2017-12-05T04:08:07.236Z,0
2017-12-05T04:08:47.813Z,0
2017-12-05T04:09:28.378Z,0
2017-12-05T04:10:08.942Z,0
2017-12-05T04:10:49.504Z,0
2017-12-05T04:11:30.065Z,0
2017-12-05T04:12:10.625Z,0
2017-12-05T04:12:51.203Z,0
2017-12-05T04:13:31.769Z,0
2017-12-05T04:14:12.330Z,0
2017-12-05T04:14:52.916Z,0
2017-12-05T04:15:33.478Z,0
2017-12-05T04:16:14.038Z,0
2017-12-05T04:16:54.622Z,0
2017-12-05T04:17:35.176Z,0
2017-12-05T04:18:15.734Z,0
2017-12-05T04:18:56.288Z,0
2017-12-05T04:19:36.880Z,0
2017-12-05T04:20:17.447Z,0
2017-12-05T04:20:58.011Z,0
2017-12-05T04:21:38.587Z,0
2017-12-05T04:22:19.155Z,0
2017-12-05T04:22:59.727Z,0
2017-12-05T04:23:40.300Z,0
2017-12-05T04:24:20.869Z,0
2017-12-05T04:25:01.437Z,0
2017-12-05T04:25:42.009Z,0
2017-12-05T04:26:22.577Z,0
2017-12-05T04:27:03.140Z,0
2017-12-05T04:27:43.742Z,0
2017-12-05T04:28:24.303Z,0
2017-12-05T04:29:04.873Z,0
2017-12-05T04:29:45.452Z,0
2017-12-05T04:30:26.067Z,0
2017-12-05T04:31:06.638Z,0
2017-12-05T04:31:47.203Z,0
2017-12-05T04:32:27.757Z,0
2017-12-05T04:33:08.328Z,0
2017-12-05T04:33:48.895Z,0
2017-12-05T04:34:29.453Z,0
2017-12-05T04:35:10.030Z,0
2017-12-05T04:35:50.599Z,0
2017-12-05T04:36:31.204Z,0
2017-12-05T04:37:11.766Z,0
2017-12-05T04:37:52.326Z,0
2017-12-05T04:38:32.909Z,0
2017-12-05T04:39:13.488Z,0
2017-12-05T04:39:54.052Z,0
2017-12-05T04:40:34.624Z,0
2017-12-05T04:41:15.219Z,0
2017-12-05T04:41:55.788Z,0
2017-12-05T04:42:36.359Z,0
2017-12-05T04:43:16.946Z,0
2017-12-05T04:43:57.518Z,0
2017-12-05T04:44:38.098Z,0
2017-12-05T04:45:18.664Z,0
2017-12-05T04:45:59.234Z,0
2017-12-05T04:46:39.805Z,0
2017-12-05T04:47:20.374Z,0
2017-12-05T04:48:00.923Z,0
2017-12-05T04:48:41.506Z,0
2017-12-05T04:49:22.086Z,0
2017-12-05T04:50:02.656Z,0
2017-12-05T04:50:43.235Z,0
2017-12-05T04:51:23.820Z,0
2017-12-05T04:52:04.378Z,0
2017-12-05T04:52:44.944Z,0
2017-12-05T04:53:25.521Z,0
2017-12-05T04:54:06.140Z,0
2017-12-05T04:54:46.695Z,0
2017-12-05T04:55:27.283Z,0
2017-12-05T04:56:07.849Z,0
2017-12-05T04:56:48.408Z,0
2017-12-05T04:57:29.010Z,0
2017-12-05T04:58:09.589Z,0
2017-12-05T04:58:50.150Z,0
2017-12-05T04:59:30.732Z,0
2017-12-05T05:00:11.289Z,0
2017-12-05T05:00:51.860Z,0
2017-12-05T05:01:32.455Z,0
2017-12-05T05:02:13.059Z,0
2017-12-05T05:02:53.644Z,0
2017-12-05T05:03:34.220Z,0
2017-12-05T05:04:14.782Z,0
2017-12-05T05:04:55.367Z,0
2017-12-05T05:05:35.937Z,0
2017-12-05T05:06:16.538Z,0
2017-12-05T05:06:57.101Z,0
2017-12-05T05:07:37.662Z,0
2017-12-05T05:08:18.259Z,0
2017-12-05T05:08:58.804Z,0
2017-12-05T05:09:39.367Z,0
2017-12-05T05:10:19.934Z,0
2017-12-05T05:11:00.504Z,0
2017-12-05T05:11:41.075Z,0
2017-12-05T05:12:21.659Z,0
2017-12-05T05:13:02.221Z,0
2017-12-05T05:13:42.801Z,0
2017-12-05T05:14:23.366Z,0
2017-12-05T05:15:03.941Z,0
2017-12-05T05:15:44.507Z,0
2017-12-05T05:16:25.066Z,0
2017-12-05T05:17:05.636Z,0
2017-12-05T05:17:46.207Z,0
2017-12-05T05:18:26.765Z,0
2017-12-05T05:19:07.334Z,0
2017-12-05T05:19:47.897Z,0
2017-12-05T05:20:28.456Z,0
2017-12-05T05:21:09.013Z,0
2017-12-05T05:21:49.581Z,0
2017-12-05T05:22:30.150Z,0
2017-12-05T05:23:10.720Z,0
2017-12-05T05:23:51.280Z,0
2017-12-05T05:24:31.856Z,0
2017-12-05T05:25:12.412Z,0
2017-12-05T05:25:52.987Z,0
2017-12-05T05:26:33.567Z,0
2017-12-05T05:27:14.133Z,4
2017-12-05T05:27:54.697Z,4
2017-12-05T05:28:35.295Z,4
2017-12-05T05:29:15.928Z,4
2017-12-05T05:29:56.508Z,4
2017-12-05T05:30:37.070Z,4
2017-12-05T05:31:17.648Z,4
2017-12-05T05:31:58.216Z,4
2017-12-05T05:32:38.782Z,4
2017-12-05T05:33:19.358Z,4
2017-12-05T05:33:59.920Z,4
2017-12-05T05:34:40.497Z,4
2017-12-05T05:35:21.059Z,4
2017-12-05T05:36:01.611Z,4
2017-12-05T05:36:42.203Z,4
2017-12-05T05:37:22.771Z,4
2017-12-05T05:38:03.342Z,4
2017-12-05T05:38:43.904Z,4
2017-12-05T05:39:24.480Z,4
2017-12-05T05:40:05.046Z,4
2017-12-05T05:40:45.627Z,4
2017-12-05T05:41:26.198Z,4
2017-12-05T05:42:06.751Z,4
2017-12-05T05:42:47.322Z,4
2017-12-05T05:43:27.910Z,4
2017-12-05T05:44:08.497Z,4
2017-12-05T05:44:49.089Z,4
2017-12-05T05:45:29.655Z,4
2017-12-05T05:46:10.213Z,4
2017-12-05T05:46:50.784Z,4
2017-12-05T05:47:31.360Z,4
2017-12-05T05:48:11.914Z,4
2017-12-05T05:48:52.468Z,4
2017-12-05T05:49:33.030Z,4
2017-12-05T05:50:13.614Z,4
2017-12-05T05:50:54.164Z,4
2017-12-05T05:51:34.734Z,4
2017-12-05T05:52:15.298Z,4
2017-12-05T05:52:55.862Z,4
2017-12-05T05:53:36.469Z,4
2017-12-05T05:54:17.028Z,4
2017-12-05T05:54:57.652Z,4
2017-12-05T05:55:38.258Z,4
2017-12-05T05:56:18.827Z,4
2017-12-05T05:56:59.397Z,4
2017-12-05T05:57:39.956Z,4
2017-12-05T05:58:20.774Z,4
2017-12-05T05:59:01.598Z,4
2017-12-05T05:59:42.317Z,4
2017-12-05T06:00:23.204Z,0
2017-12-05T06:01:04.152Z,4
2017-12-05T06:01:46.083Z,4
2017-12-05T06:02:27.126Z,4
2017-12-05T06:03:07.872Z,4
2017-12-05T06:03:48.652Z,4
2017-12-05T06:04:29.402Z,4
2017-12-05T06:05:10.384Z,4
2017-12-05T06:05:51.158Z,0
2017-12-05T06:06:31.874Z,0
2017-12-05T06:07:12.793Z,0
2017-12-05T06:07:53.836Z,4
2017-12-05T06:08:34.687Z,4
2017-12-05T06:09:15.804Z,4
2017-12-05T06:09:57.201Z,0
2017-12-05T06:10:38.425Z,4
2017-12-05T06:11:19.305Z,4
2017-12-05T06:12:00.026Z,4
2017-12-05T06:12:40.940Z,4
2017-12-05T06:13:21.584Z,4
2017-12-05T06:14:02.142Z,0
2017-12-05T06:14:42.799Z,4
2017-12-05T06:15:23.365Z,4
2017-12-05T06:16:03.933Z,4
2017-12-05T06:16:44.511Z,4
2017-12-05T06:17:25.085Z,4
2017-12-05T06:18:05.663Z,4
2017-12-05T06:18:46.278Z,4
2017-12-05T06:19:27.024Z,4
2017-12-05T06:20:07.596Z,4
2017-12-05T06:20:48.155Z,4
2017-12-05T06:21:29.010Z,0
2017-12-05T06:22:09.681Z,0
2017-12-05T06:22:50.256Z,0
2017-12-05T06:23:30.830Z,0
2017-12-05T06:24:11.439Z,0
2017-12-05T06:24:52.015Z,0
2017-12-05T06:25:32.578Z,0
2017-12-05T06:26:13.149Z,0
2017-12-05T06:26:53.736Z,0
2017-12-05T06:27:34.304Z,0
2017-12-05T06:28:14.885Z,0
2017-12-05T06:28:55.452Z,0
2017-12-05T06:29:36.024Z,0
2017-12-05T06:30:16.597Z,0
2017-12-05T06:30:57.156Z,4
2017-12-05T06:31:37.712Z,4
2017-12-05T06:32:18.291Z,4
2017-12-05T06:32:58.853Z,4
2017-12-05T06:33:39.438Z,4
2017-12-05T06:34:20.039Z,4
2017-12-05T06:35:00.610Z,4
2017-12-05T06:35:41.193Z,4
2017-12-05T06:36:21.757Z,4
2017-12-05T06:37:02.352Z,4
2017-12-05T06:37:42.969Z,4
2017-12-05T06:38:23.531Z,4
2017-12-05T06:39:04.145Z,4
2017-12-05T06:39:44.713Z,4
2017-12-05T06:40:25.275Z,4
2017-12-05T06:41:05.862Z,8
2017-12-05T06:41:46.431Z,4
2017-12-05T06:42:27.042Z,8
2017-12-05T06:43:07.643Z,8
2017-12-05T06:43:48.180Z,4
2017-12-05T06:44:28.757Z,8
2017-12-05T06:45:09.326Z,8
2017-12-05T06:45:49.892Z,8
2017-12-05T06:46:30.467Z,8
2017-12-05T06:47:11.044Z,8
2017-12-05T06:47:51.700Z,8
2017-12-05T06:48:32.223Z,8
2017-12-05T06:49:12.793Z,12
2017-12-05T06:49:53.505Z,16
2017-12-05T06:50:34.028Z,12
2017-12-05T06:51:14.615Z,16
2017-12-05T06:51:55.182Z,16
2017-12-05T06:52:35.750Z,16
2017-12-05T06:53:16.320Z,20
2017-12-05T06:53:56.921Z,20
2017-12-05T06:54:37.490Z,28
2017-12-05T06:55:18.102Z,28
2017-12-05T06:55:58.699Z,28
2017-12-05T06:56:39.295Z,28
2017-12-05T06:57:19.862Z,32
2017-12-05T06:58:00.455Z,36
2017-12-05T06:58:41.050Z,40
2017-12-05T06:59:21.644Z,44
2017-12-05T07:00:02.216Z,40
2017-12-05T07:00:42.788Z,44
2017-12-05T07:01:23.363Z,48
2017-12-05T07:02:03.946Z,52
2017-12-05T07:02:44.647Z,56
2017-12-05T07:03:25.214Z,48
2017-12-05T07:04:05.778Z,48
2017-12-05T07:04:46.387Z,48
2017-12-05T07:05:26.952Z,44
2017-12-05T07:06:07.529Z,48
2017-12-05T07:06:48.098Z,52
2017-12-05T07:07:28.674Z,56
2017-12-05T07:08:09.242Z,52
2017-12-05T07:08:49.818Z,52
2017-12-05T07:09:30.952Z,60
2017-12-05T07:10:11.553Z,68
2017-12-05T07:10:52.139Z,64
2017-12-05T07:11:32.753Z,52
2017-12-05T07:12:13.326Z,48
2017-12-05T07:12:53.896Z,56
2017-12-05T07:13:34.480Z,60
2017-12-05T07:14:15.145Z,68
2017-12-05T07:14:55.713Z,64
2017-12-05T07:15:36.308Z,72
2017-12-05T07:16:16.877Z,76
2017-12-05T07:16:57.463Z,68
2017-12-05T07:17:38.102Z,64
2017-12-05T07:18:18.689Z,68
2017-12-05T07:18:59.305Z,72
2017-12-05T07:19:39.875Z,68
2017-12-05T07:20:20.440Z,72
2017-12-05T07:21:01.052Z,80
2017-12-05T07:21:41.628Z,76
2017-12-05T07:22:22.232Z,72
2017-12-05T07:23:02.807Z,80
2017-12-05T07:23:43.409Z,92
2017-12-05T07:24:24.010Z,88
2017-12-05T07:25:04.582Z,96
2017-12-05T07:25:45.195Z,96
2017-12-05T07:26:25.770Z,100
2017-12-05T07:27:06.333Z,100
2017-12-05T07:27:46.898Z,100
2017-12-05T07:28:27.496Z,96
2017-12-05T07:29:08.112Z,108
2017-12-05T07:29:48.678Z,116
2017-12-05T07:30:29.288Z,120
2017-12-05T07:31:09.871Z,128
2017-12-05T07:31:50.439Z,140
2017-12-05T07:32:31.023Z,132
2017-12-05T07:33:11.608Z,148
2017-12-05T07:33:52.189Z,172
2017-12-05T07:34:32.778Z,192
2017-12-05T07:35:13.352Z,224
2017-12-05T07:35:53.925Z,204
2017-12-05T07:36:34.535Z,196
2017-12-05T07:37:15.083Z,188
2017-12-05T07:37:55.685Z,168
2017-12-05T07:38:36.263Z,144
2017-12-05T07:39:16.870Z,124
2017-12-05T07:39:57.436Z,136
2017-12-05T07:40:38.068Z,164
2017-12-05T07:41:18.640Z,176
2017-12-05T07:41:59.278Z,184
2017-12-05T07:42:39.863Z,236
2017-12-05T07:43:20.426Z,240
2017-12-05T07:44:01.000Z,284
2017-12-05T07:44:41.589Z,224
2017-12-05T07:45:22.205Z,176
2017-12-05T07:46:02.765Z,204
2017-12-05T07:46:43.341Z,208
2017-12-05T07:47:23.910Z,220
2017-12-05T07:48:04.493Z,296
2017-12-05T07:48:45.084Z,296
2017-12-05T07:49:26.006Z,352
2017-12-05T07:50:06.777Z,312
2017-12-05T07:50:47.391Z,276
2017-12-05T07:51:27.964Z,252
2017-12-05T07:52:08.534Z,252
2017-12-05T07:52:49.164Z,264
2017-12-05T07:53:29.745Z,228
2017-12-05T07:54:10.323Z,232
2017-12-05T07:54:50.899Z,236
2017-12-05T07:55:31.484Z,220
2017-12-05T07:56:12.044Z,228
2017-12-05T07:56:52.630Z,248
2017-12-05T07:57:33.205Z,236
2017-12-05T07:58:14.532Z,228
2017-12-05T07:58:55.131Z,252
2017-12-05T07:59:35.728Z,260
2017-12-05T08:00:16.325Z,264
2017-12-05T08:00:56.890Z,300
2017-12-05T08:01:37.506Z,272
2017-12-05T08:02:18.058Z,304
2017-12-05T08:02:58.631Z,336
2017-12-05T08:03:39.442Z,372
2017-12-05T08:04:20.031Z,412
2017-12-05T08:05:00.689Z,360
2017-12-05T08:05:41.821Z,416
2017-12-05T08:06:22.377Z,380
2017-12-05T08:07:02.951Z,424
2017-12-05T08:07:43.530Z,432
2017-12-05T08:08:24.115Z,432
2017-12-05T08:09:04.690Z,392
2017-12-05T08:09:45.300Z,400
2017-12-05T08:10:25.894Z,440
2017-12-05T08:11:06.603Z,460
2017-12-05T08:11:49.242Z,456
2017-12-05T08:12:29.852Z,472
2017-12-05T08:13:10.422Z,472
2017-12-05T08:13:50.989Z,448
2017-12-05T08:14:31.556Z,416
2017-12-05T08:15:12.122Z,440
2017-12-05T08:15:52.715Z,480
2017-12-05T08:16:33.551Z,512
2017-12-05T08:17:14.171Z,540
2017-12-05T08:17:54.723Z,548
2017-12-05T08:18:35.300Z,560
2017-12-05T08:19:15.884Z,568
2017-12-05T08:19:56.465Z,432
2017-12-05T08:20:37.065Z,444
2017-12-05T08:21:17.672Z,412
2017-12-05T08:21:58.272Z,444
2017-12-05T08:22:38.860Z,496
2017-12-05T08:24:56.817Z,652
2017-12-05T08:25:37.383Z,556
2017-12-05T08:26:17.947Z,500
2017-12-05T08:26:58.558Z,476
2017-12-05T08:27:39.121Z,516
2017-12-05T08:28:19.679Z,468
2017-12-05T08:29:00.246Z,492
2017-12-05T08:29:40.818Z,528
2017-12-05T08:30:21.393Z,472
2017-12-05T08:31:01.969Z,452
2017-12-05T08:31:42.548Z,540
2017-12-05T08:32:23.137Z,500
2017-12-05T08:33:03.813Z,452
2017-12-05T08:33:44.380Z,484
2017-12-05T08:34:24.955Z,544
2017-12-05T08:35:06.323Z,592
2017-12-05T08:35:46.888Z,596
2017-12-05T08:36:27.457Z,552
2017-12-05T08:37:08.025Z,584
2017-12-05T08:37:48.608Z,564
2017-12-05T08:38:29.193Z,556
2017-12-05T08:39:09.761Z,584
2017-12-05T08:39:50.315Z,552
2017-12-05T08:40:30.869Z,516
2017-12-05T08:41:11.464Z,480
2017-12-05T08:41:52.043Z,440
2017-12-05T08:42:32.645Z,440
2017-12-05T08:43:13.229Z,420
2017-12-05T08:43:53.796Z,424
2017-12-05T08:44:34.418Z,436
2017-12-05T08:45:14.986Z,452
2017-12-05T08:45:55.586Z,464
2017-12-05T08:46:36.256Z,488
2017-12-05T08:47:16.862Z,544
2017-12-05T08:47:57.424Z,660
2017-12-05T08:48:37.984Z,676
2017-12-05T08:49:18.549Z,584
2017-12-05T08:49:59.165Z,548
2017-12-05T08:50:39.728Z,520
2017-12-05T08:51:20.290Z,552
2017-12-05T08:52:00.865Z,628
2017-12-05T08:52:41.425Z,688
2017-12-05T08:53:22.033Z,748
2017-12-05T08:54:02.632Z,660
2017-12-05T08:54:43.209Z,608
2017-12-05T08:55:23.794Z,600
2017-12-05T08:56:04.375Z,644
2017-12-05T08:56:44.940Z,720
2017-12-05T08:57:25.526Z,840
2017-12-05T08:58:06.115Z,808
2017-12-05T08:58:46.708Z,688
2017-12-05T08:59:27.296Z,728
2017-12-05T09:00:07.911Z,848
2017-12-05T09:00:48.477Z,864
2017-12-05T09:01:29.042Z,964
2017-12-05T09:02:09.620Z,780
2017-12-05T09:02:50.218Z,756
2017-12-05T09:03:30.812Z,900
2017-12-05T09:04:11.384Z,960
2017-12-05T09:04:51.949Z,808
2017-12-05T09:05:32.518Z,732
2017-12-05T09:06:13.129Z,740
2017-12-05T09:06:53.720Z,808
2017-12-05T09:07:34.294Z,744
2017-12-05T09:08:14.933Z,796
2017-12-05T09:08:55.506Z,720
2017-12-05T09:09:36.108Z,696
2017-12-05T09:10:16.723Z,708
2017-12-05T09:10:57.283Z,916
2017-12-05T09:11:37.850Z,984
2017-12-05T09:12:18.443Z,1028
2017-12-05T09:12:59.018Z,1000
2017-12-05T09:13:39.603Z,928
2017-12-05T09:14:20.163Z,864
2017-12-05T09:15:00.744Z,820
2017-12-05T09:15:41.325Z,764
2017-12-05T09:16:22.090Z,860
2017-12-05T09:17:02.677Z,908
2017-12-05T09:17:43.251Z,1140
2017-12-05T09:18:23.817Z,1152
2017-12-05T09:19:04.433Z,1068
2017-12-05T09:19:45.005Z,964
2017-12-05T09:20:25.586Z,860
2017-12-05T09:21:06.168Z,940
2017-12-05T09:21:46.753Z,748
2017-12-05T09:22:27.334Z,604
2017-12-05T09:23:07.917Z,556
2017-12-05T09:23:48.511Z,476
2017-12-05T09:24:29.076Z,448
2017-12-05T09:25:09.658Z,452
2017-12-05T09:25:50.217Z,452
2017-12-05T09:26:30.811Z,484
2017-12-05T09:27:11.437Z,476
2017-12-05T09:27:52.082Z,492
2017-12-05T09:28:32.682Z,512
2017-12-05T09:29:13.261Z,576
2017-12-05T09:29:53.852Z,640
2017-12-05T09:30:34.474Z,560
2017-12-05T09:31:15.106Z,552
2017-12-05T09:31:55.660Z,532
2017-12-05T09:32:36.228Z,540
2017-12-05T09:33:16.800Z,476
2017-12-05T09:33:57.359Z,504
2017-12-05T09:34:37.916Z,584
2017-12-05T09:35:18.502Z,580
2017-12-05T09:35:59.088Z,604
2017-12-05T09:36:39.710Z,576
2017-12-05T09:37:20.260Z,540
2017-12-05T09:38:00.835Z,568
2017-12-05T09:38:41.410Z,616
2017-12-05T09:39:21.975Z,584
2017-12-05T09:40:02.546Z,576
2017-12-05T09:40:43.111Z,524
2017-12-05T09:41:24.002Z,524
2017-12-05T09:42:04.662Z,544
2017-12-05T09:42:45.239Z,600
2017-12-05T09:43:25.807Z,584
2017-12-05T09:44:06.376Z,768
2017-12-05T09:44:46.953Z,800
2017-12-05T09:45:27.539Z,728
2017-12-05T09:46:08.173Z,832
2017-12-05T09:46:48.803Z,788
2017-12-05T09:47:29.363Z,752
2017-12-05T09:48:09.942Z,840
2017-12-05T09:48:50.502Z,960
2017-12-05T09:49:31.091Z,808
2017-12-05T09:50:11.659Z,696